Time;durP1;ratioP1;P1;durP2;ratioP2;P2;SDS_P1;SDS_P2;PMS_P1;PMS_P2;Temp;Humidity;BMP_temperature;BMP_pressure;BME280_temperature;BME280_humidity;BME280_pressure;Samples;Min_cycle;Max_cycle;Signal;HPM_P1;HPM_P2
2021/01/30 00:01:19;;;;;;;;;;;;;;;1.00;79.29;96177.23;1647418;86;20542;-86
2021/01/30 00:04:06;;;;;;;;;;;;;;;1.01;79.26;96177.59;1647947;85;24922;-86
2021/01/30 00:06:57;;;;;;;;;;;;;;;1.05;79.28;96181.60;1647128;87;22068;-86
2021/01/30 00:09:43;;;;;;;;;;;;;;;1.07;79.25;96180.22;1646073;87;26104;-86
2021/01/30 00:12:29;;;;;;;;;;;;;;;1.07;79.27;96164.30;1648032;87;25439;-86
2021/01/30 00:15:15;;;;;;;;;;;;;;;1.08;79.25;96158.23;1647646;87;20385;-86
2021/01/30 00:18:03;;;;;;;;;;;;;;;1.08;79.29;96159.52;1646335;87;24189;-86
2021/01/30 00:20:50;;;;;;;;;;;;;;;1.13;79.29;96153.59;1647085;87;23250;-86
2021/01/30 00:23:36;;;;;;;;;;;;;;;1.19;79.27;96151.87;1647894;85;26204;-91
2021/01/30 00:26:22;;;;;;;;;;;;;;;1.23;79.28;96148.16;1646849;87;24583;-92
2021/01/30 00:28:58;;;;;;;;;;;;;;;1.32;79.29;96151.00;1648266;87;20327;-92
2021/01/30 00:31:45;;;;;;;;;;;;;;;1.41;79.28;96144.77;1648086;87;24909;-90
2021/01/30 00:34:31;;;;;;;;;;;;;;;1.42;79.30;96145.59;1646728;87;23060;-90
2021/01/30 00:37:22;;;;;;;;;;;;;;;1.41;79.30;96152.96;1647270;87;27084;-91
2021/01/30 00:40:08;;;;;;;;;;;;;;;1.45;79.32;96146.66;1648129;87;24802;-86
2021/01/30 00:42:54;;;;;;;;;;;;;;;1.39;79.31;96140.64;1648115;85;20286;-87
2021/01/30 00:45:40;;;;;;;;;;;;;;;1.45;79.29;96150.06;1647992;87;25065;-86
2021/01/30 00:48:26;;;;;;;;;;;;;;;1.46;79.29;96143.98;1648079;87;22357;-87
2021/01/30 00:51:15;;;;;;;;;;;;;;;1.43;79.29;96142.89;1647357;87;27014;-86
2021/01/30 00:54:03;;;;;;;;;;;;;;;1.48;79.28;96136.94;1647825;87;24801;-86
2021/01/30 00:56:49;;;;;;;;;;;;;;;1.52;79.26;96140.97;1647034;87;20294;-86
2021/01/30 00:59:36;;;;;;;;;;;;;;;1.60;79.25;96137.84;1647571;87;24930;-86
2021/01/30 01:02:22;;;;;;;;;;;;;;;1.59;79.27;96139.59;1646537;87;22163;-86
2021/01/30 01:05:08;;;;;;;;;;;;;;;1.58;79.28;96136.65;1647810;87;26137;-86
2021/01/30 01:07:54;;;;;;;;;;;;;;;1.56;79.28;96138.53;1643000;84;24605;-86
2021/01/30 01:10:41;;;;;;;;;;;;;;;1.44;79.31;96131.66;1624767;88;20339;-86
2021/01/30 01:13:28;;;;;;;;;;;;;;;1.31;79.31;96128.28;1624995;88;25010;-86
2021/01/30 01:16:14;;;;;;;;;;;;;;;1.30;79.27;96129.23;1624677;88;23139;-86
2021/01/30 01:19:00;;;;;;;;;;;;;;;1.51;79.24;96139.78;1623336;88;26304;-86
2021/01/30 01:21:46;;;;;;;;;;;;;;;1.67;79.21;96126.99;1623800;88;24640;-86
2021/01/30 01:24:32;;;;;;;;;;;;;;;1.75;79.21;96126.89;1625099;88;20296;-86
2021/01/30 01:27:21;;;;;;;;;;;;;;;1.77;79.24;96118.59;1624827;88;25153;-86
2021/01/30 01:30:09;;;;;;;;;;;;;;;1.83;79.24;96124.13;1624369;88;22337;-87
2021/01/30 01:33:04;;;;;;;;;;;;;;;1.86;79.26;96114.87;1624686;88;26219;-86
2021/01/30 01:35:56;;;;;;;;;;;;;;;1.88;79.25;96114.77;1623625;88;24623;-86
2021/01/30 01:38:43;;;;;;;;;;;;;;;1.85;79.23;96105.98;1623366;88;20575;-86
2021/01/30 01:41:17;;;;;;;;;;;;;;;1.74;79.24;96105.93;1624915;88;24958;-90
2021/01/30 01:44:04;;;;;;;;;;;;;;;1.65;79.21;96098.37;1625077;87;22097;-91
2021/01/30 01:46:50;;;;;;;;;;;;;;;1.64;79.17;96094.14;1624873;88;27078;-90
2021/01/30 01:49:41;;;;;;;;;;;;;;;1.69;79.15;96090.80;1624928;88;24739;-90
2021/01/30 01:52:27;;;;;;;;;;;;;;;1.59;79.17;96081.59;1623497;88;20321;-89
2021/01/30 01:55:13;;;;;;;;;;;;;;;1.52;79.12;96067.52;1624707;88;24949;-88
2021/01/30 01:57:59;;;;;;;;;;;;;;;1.55;79.13;96069.04;1625044;87;22117;-87
2021/01/30 02:00:47;;;;;;;;;;;;;;;1.62;79.10;96065.09;1624805;88;27184;-87
2021/01/30 02:03:33;;;;;;;;;;;;;;;1.68;79.11;96063.38;1623697;88;24648;-87
2021/01/30 02:06:19;;;;;;;;;;;;;;;1.62;79.12;96056.08;1624618;88;20370;-87
2021/01/30 02:09:08;;;;;;;;;;;;;;;1.56;79.15;96056.05;1624542;85;25106;-87
2021/01/30 02:11:56;;;;;;;;;;;;;;;1.52;79.14;96049.95;1624906;88;22268;-88
2021/01/30 02:14:42;;;;;;;;;;;;;;;1.57;79.13;96051.72;1623712;88;27101;-87
2021/01/30 02:17:27;;;;;;;;;;;;;;;1.46;79.13;96042.66;1624908;87;25464;-90
2021/01/30 02:20:14;;;;;;;;;;;;;;;1.33;79.11;96040.59;1624264;88;20344;-91
2021/01/30 02:22:59;;;;;;;;;;;;;;;1.33;79.09;96043.16;1624634;88;24909;-90
2021/01/30 02:25:46;;;;;;;;;;;;;;;1.33;79.06;96030.28;1623695;88;22956;-89
2021/01/30 02:28:32;;;;;;;;;;;;;;;1.34;79.07;96040.48;1624695;88;26107;-89
2021/01/30 02:31:22;;;;;;;;;;;;;;;1.35;79.08;96043.88;1624752;88;24698;-89
2021/01/30 02:34:08;;;;;;;;;;;;;;;1.33;79.08;96042.70;1624192;88;20309;-90
2021/01/30 02:36:54;;;;;;;;;;;;;;;1.32;79.07;96046.20;1624639;88;24915;-90
2021/01/30 02:39:40;;;;;;;;;;;;;;;1.34;79.11;96040.95;1624270;88;23031;-90
2021/01/30 02:42:31;;;;;;;;;;;;;;;1.34;79.12;96031.93;1625204;88;26303;-91
2021/01/30 02:45:17;;;;;;;;;;;;;;;1.32;79.14;96041.05;1624785;88;25512;-91
2021/01/30 02:48:05;;;;;;;;;;;;;;;1.34;79.17;96030.64;1625289;88;20449;-90
2021/01/30 02:50:51;;;;;;;;;;;;;;;1.36;79.19;96032.19;1620529;88;24958;-91
2021/01/30 02:53:37;;;;;;;;;;;;;;;1.37;79.23;96037.67;1625077;88;23039;-91
2021/01/30 02:56:25;;;;;;;;;;;;;;;1.38;79.27;96039.78;1624825;87;26186;-90
2021/01/30 02:59:11;;;;;;;;;;;;;;;1.39;79.30;96042.27;1622577;88;24070;-91
2021/01/30 03:04:45;;;;;;;;;;;;;;;1.46;79.39;96038.33;1624596;88;24931;-90
2021/01/30 03:07:31;;;;;;;;;;;;;;;1.49;79.45;96040.66;1627392;88;22127;-90
2021/01/30 03:10:17;;;;;;;;;;;;;;;1.51;79.48;96033.66;1653362;84;26193;-90
2021/01/30 03:13:05;;;;;;;;;;;;;;;1.56;79.55;96026.88;1657028;86;24828;-90
2021/01/30 03:15:55;;;;;;;;;;;;;;;1.59;79.62;96031.33;1657747;86;20513;-90
2021/01/30 03:18:41;;;;;;;;;;;;;;;1.62;79.67;96034.99;1657935;86;25080;-90
2021/01/30 03:21:27;;;;;;;;;;;;;;;1.68;79.73;96041.45;1657997;86;22082;-90
2021/01/30 03:27:20;;;;;;;;;;;;;;;1.78;79.87;96029.53;1657140;86;24689;-90
2021/01/30 03:30:10;;;;;;;;;;;;;;;1.82;79.95;96031.41;1656843;86;20568;-86
2021/01/30 03:32:56;;;;;;;;;;;;;;;1.88;80.01;96027.09;1656993;85;25074;-86
2021/01/30 03:35:42;;;;;;;;;;;;;;;1.93;80.08;96020.66;1657009;86;22099;-86
2021/01/30 03:38:30;;;;;;;;;;;;;;;2.00;80.15;96019.28;1657131;86;20609;-86
2021/01/30 03:41:16;;;;;;;;;;;;;;;2.09;80.22;96013.42;1657946;86;24627;-87
2021/01/30 03:44:02;;;;;;;;;;;;;;;2.15;80.30;96011.33;1657118;86;20289;-87
2021/01/30 03:49:38;;;;;;;;;;;;;;;2.30;80.43;95999.37;1656586;85;22242;-87
2021/01/30 03:52:27;;;;;;;;;;;;;;;2.37;80.52;95999.27;1656149;86;26153;-87
2021/01/30 03:55:14;;;;;;;;;;;;;;;2.44;80.60;95990.59;1657289;86;24636;-87
2021/01/30 03:58:00;;;;;;;;;;;;;;;2.47;80.66;95979.55;1658099;86;20544;-87
2021/01/30 04:00:46;;;;;;;;;;;;;;;2.51;80.72;95984.83;1658494;86;24884;-87
2021/01/30 04:03:32;;;;;;;;;;;;;;;2.58;80.79;95983.89;1657619;85;22848;-87
2021/01/30 04:06:20;;;;;;;;;;;;;;;2.63;80.85;95980.48;1657711;86;26150;-86
2021/01/30 04:09:06;;;;;;;;;;;;;;;2.68;80.90;95968.50;1655567;85;25611;-90
2021/01/30 04:11:52;;;;;;;;;;;;;;;2.74;80.98;95970.14;1645051;86;20276;-91
2021/01/30 04:14:40;;;;;;;;;;;;;;;2.78;81.01;95970.75;1643792;86;24884;-91
2021/01/30 04:17:32;;;;;;;;;;;;;;;2.81;81.06;95965.33;1647751;86;22237;-89
2021/01/30 04:20:19;;;;;;;;;;;;;;;2.83;81.12;95960.87;1646692;86;27074;-89
2021/01/30 04:23:04;;;;;;;;;;;;;;;2.84;81.14;95948.28;1649777;86;24776;-89
2021/01/30 04:25:50;;;;;;;;;;;;;;;2.85;81.18;95959.80;1646070;86;20485;-86
2021/01/30 04:28:36;;;;;;;;;;;;;;;2.88;81.22;95956.98;1647028;86;25252;-87
2021/01/30 04:31:22;;;;;;;;;;;;;;;2.91;81.24;95957.20;1647053;86;22209;-86
2021/01/30 04:34:16;;;;;;;;;;;;;;;2.94;81.29;95950.52;1649788;86;26142;-91
2021/01/30 04:37:01;;;;;;;;;;;;;;;2.99;81.30;95955.31;1645642;86;24586;-91
2021/01/30 04:39:47;;;;;;;;;;;;;;;3.01;81.35;95950.83;1647976;86;20281;-91
2021/01/30 04:42:33;;;;;;;;;;;;;;;3.03;81.37;95946.37;1644637;86;24967;-91
2021/01/30 04:45:21;;;;;;;;;;;;;;;3.05;81.39;95948.38;1644144;86;22076;-91
2021/01/30 04:48:07;;;;;;;;;;;;;;;3.08;81.44;95957.16;1646832;86;27088;-90
2021/01/30 04:50:57;;;;;;;;;;;;;;;3.12;81.46;95949.50;1649078;86;24637;-89
2021/01/30 04:53:43;;;;;;;;;;;;;;;3.15;81.47;95942.34;1648307;86;20322;-90
2021/01/30 04:56:29;;;;;;;;;;;;;;;3.20;81.50;95944.55;1649366;86;25614;-90
2021/01/30 04:59:15;;;;;;;;;;;;;;;3.22;81.53;95949.94;1650244;86;23018;-89
2021/01/30 05:02:04;;;;;;;;;;;;;;;3.25;81.56;95954.88;1650977;86;25346;-88
2021/01/30 05:04:55;;;;;;;;;;;;;;;3.27;81.58;95943.92;1647357;86;25730;-89
2021/01/30 05:07:42;;;;;;;;;;;;;;;3.29;81.62;95948.50;1646194;86;20306;-88
2021/01/30 05:10:29;;;;;;;;;;;;;;;3.32;81.63;95940.99;1654072;84;24913;-89
2021/01/30 05:13:17;;;;;;;;;;;;;;;3.33;81.66;95940.02;1657234;86;23138;-89
2021/01/30 05:16:03;;;;;;;;;;;;;;;3.34;81.66;95935.20;1657604;86;26282;-90
2021/01/30 05:18:53;;;;;;;;;;;;;;;3.38;81.68;95933.53;1684690;84;24268;-89
2021/01/30 05:21:42;;;;;;;;;;;;;;;3.42;81.69;95930.25;1657569;86;20548;-89
2021/01/30 05:24:16;;;;;;;;;;;;;;;3.47;81.71;95932.45;1657586;86;25817;-90
2021/01/30 05:27:03;;;;;;;;;;;;;;;3.49;81.73;95925.41;1657309;86;22263;-89
2021/01/30 05:29:51;;;;;;;;;;;;;;;3.52;81.74;95922.56;1657164;86;26118;-89
2021/01/30 05:32:43;;;;;;;;;;;;;;;3.55;81.75;95920.53;1657882;86;24600;-92
2021/01/30 05:35:30;;;;;;;;;;;;;;;3.60;81.76;95918.88;1658271;86;20389;-92
2021/01/30 05:38:21;;;;;;;;;;;;;;;3.64;81.78;95919.80;1657737;86;24739;-92
2021/01/30 05:41:07;;;;;;;;;;;;;;;3.66;81.80;95920.47;1657522;85;22106;-89
2021/01/30 05:43:45;;;;;;;;;;;;;;;3.67;81.83;95922.11;1653497;86;26138;-89
2021/01/30 05:46:21;;;;;;;;;;;;;;;3.70;81.82;95924.94;1660564;86;24638;-90
2021/01/30 05:52:23;;;;;;;;;;;;;;;3.71;81.85;95923.96;1658039;86;24889;-91
2021/01/30 05:55:11;;;;;;;;;;;;;;;3.73;81.84;95919.02;1656949;86;22266;-91
2021/01/30 06:00:34;;;;;;;;;;;;;;;3.75;81.84;95921.49;1657559;86;24807;-90
2021/01/30 06:03:22;;;;;;;;;;;;;;;3.78;81.84;95917.34;1659760;86;20570;-90
2021/01/30 06:06:01;;;;;;;;;;;;;;;3.82;81.83;95916.14;1654868;86;25733;-90
2021/01/30 06:11:39;;;;;;;;;;;;;;;3.86;81.83;95921.89;1637790;84;22344;-91
2021/01/30 06:14:28;;;;;;;;;;;;;;;3.87;81.82;95931.30;1639987;87;24723;-90
2021/01/30 06:17:14;;;;;;;;;;;;;;;3.90;81.84;95924.56;1641780;87;20250;-90
2021/01/30 06:20:04;;;;;;;;;;;;;;;3.88;81.82;95926.45;1640148;87;25837;-90
2021/01/30 06:22:49;;;;;;;;;;;;;;;3.87;81.83;95914.48;1641515;87;22207;-89
2021/01/30 06:25:38;;;;;;;;;;;;;;;3.87;81.83;95917.89;1641529;87;26197;-90
2021/01/30 06:28:24;;;;;;;;;;;;;;;3.87;81.83;95911.42;1641493;87;24682;-90
2021/01/30 06:31:14;;;;;;;;;;;;;;;3.86;81.83;95905.08;1641413;87;20207;-90
2021/01/30 06:34:00;;;;;;;;;;;;;;;3.83;81.82;95898.85;1641610;86;24978;-90
2021/01/30 06:36:39;;;;;;;;;;;;;;;3.83;81.82;95898.85;1639816;87;23002;-90
2021/01/30 06:39:26;;;;;;;;;;;;;;;3.82;81.81;95899.83;1641605;87;26125;-89
2021/01/30 06:42:12;;;;;;;;;;;;;;;3.85;81.81;95902.97;1641292;86;24608;-89
2021/01/30 06:44:59;;;;;;;;;;;;;;;3.87;81.78;95896.38;1641036;86;20323;-89
2021/01/30 06:47:44;;;;;;;;;;;;;;;3.89;81.79;95893.98;1640534;86;26141;-89
2021/01/30 06:50:32;;;;;;;;;;;;;;;3.92;81.78;95901.98;1640802;87;22100;-88
2021/01/30 06:53:19;;;;;;;;;;;;;;;3.91;81.80;95892.11;1639583;87;26273;-90
2021/01/30 06:56:05;;;;;;;;;;;;;;;3.90;81.77;95889.64;1640240;87;24712;-89
2021/01/30 06:58:52;;;;;;;;;;;;;;;3.90;81.78;95899.52;1640817;86;20357;-89
2021/01/30 07:01:38;;;;;;;;;;;;;;;3.91;81.76;95892.58;1639598;87;24979;-90
2021/01/30 07:04:26;;;;;;;;;;;;;;;3.91;81.74;95888.70;1641098;87;22137;-90
2021/01/30 07:07:15;;;;;;;;;;;;;;;3.90;81.76;95892.22;1640604;87;26149;-88
2021/01/30 07:10:01;;;;;;;;;;;;;;;3.90;81.74;95889.17;1639806;87;24602;-90
2021/01/30 07:12:51;;;;;;;;;;;;;;;3.94;81.73;95893.59;1641253;87;20319;-88
2021/01/30 07:15:28;;;;;;;;;;;;;;;3.95;81.72;95888.78;1639854;87;24885;-89
2021/01/30 07:18:14;;;;;;;;;;;;;;;3.96;81.73;95894.30;1641430;86;22174;-91
2021/01/30 07:21:00;;;;;;;;;;;;;;;3.96;81.72;95891.72;1641644;86;26146;-88
2021/01/30 07:23:52;;;;;;;;;;;;;;;4.00;81.71;95891.80;1641545;86;25631;-90
2021/01/30 07:26:38;;;;;;;;;;;;;;;4.00;81.69;95884.03;1641369;87;20545;-89
2021/01/30 07:29:28;;;;;;;;;;;;;;;4.02;81.68;95880.38;1639728;87;26010;-91
2021/01/30 07:32:14;;;;;;;;;;;;;;;4.04;81.68;95881.52;1641334;87;22395;-91
2021/01/30 07:35:00;;;;;;;;;;;;;;;4.02;81.67;95876.50;1641148;87;26145;-89
2021/01/30 07:37:47;;;;;;;;;;;;;;;4.06;81.64;95871.88;1665989;85;24518;-90
2021/01/30 07:40:36;;;;;;;;;;;;;;;4.08;81.64;95871.28;1640476;87;20566;-90
2021/01/30 07:43:22;;;;;;;;;;;;;;;4.10;81.64;95863.71;1639827;87;25221;-90
2021/01/30 07:46:09;;;;;;;;;;;;;;;4.15;81.63;95857.67;1641262;87;22147;-90
2021/01/30 07:48:55;;;;;;;;;;;;;;;4.18;81.62;95857.89;1641484;87;26202;-91
2021/01/30 07:51:41;;;;;;;;;;;;;;;4.19;81.61;95858.25;1639501;87;24928;-91
2021/01/30 07:54:27;;;;;;;;;;;;;;;4.19;81.61;95860.36;1640101;87;20541;-91
2021/01/30 07:57:15;;;;;;;;;;;;;;;4.21;81.58;95866.20;1640592;87;25161;-90
2021/01/30 08:00:04;;;;;;;;;;;;;;;4.23;81.55;95868.67;1641331;87;22355;-90
2021/01/30 08:02:50;;;;;;;;;;;;;;;4.24;81.52;95861.26;1640873;87;26144;-90
2021/01/30 08:05:36;;;;;;;;;;;;;;;4.28;81.48;95870.86;1641212;87;24955;-90
2021/01/30 08:08:26;;;;;;;;;;;;;;;4.28;81.44;95861.80;1670044;85;20303;-90
2021/01/30 08:11:11;;;;;;;;;;;;;;;4.33;81.40;95873.88;1645623;85;24866;-90
2021/01/30 08:14:01;;;;;;;;;;;;;;;4.34;81.37;95869.87;1673671;84;22110;-92
2021/01/30 08:16:44;;;;;;;;;;;;;;;4.37;81.35;95881.71;1673649;85;26307;-90
2021/01/30 08:19:20;;;;;;;;;;;;;;;4.39;81.30;95883.70;1672634;85;24585;-92
2021/01/30 08:24:47;;;;;;;;;;;;;;;4.43;81.24;95876.02;1670190;85;24917;-90
2021/01/30 08:27:33;;;;;;;;;;;;;;;4.47;81.19;95884.67;1692211;84;22699;-91
2021/01/30 08:30:21;;;;;;;;;;;;;;;4.49;81.15;95885.37;1673583;85;26223;-91
2021/01/30 08:33:07;;;;;;;;;;;;;;;4.49;81.12;95885.37;1673617;85;24756;-91
2021/01/30 08:35:55;;;;;;;;;;;;;;;4.51;81.08;95878.77;1673661;84;20540;-91
2021/01/30 08:38:41;;;;;;;;;;;;;;;4.55;81.05;95877.55;1675258;84;25738;-89
2021/01/30 08:41:27;;;;;;;;;;;;;;;4.58;81.01;95874.71;1673357;85;22468;-91
2021/01/30 08:44:13;;;;;;;;;;;;;;;4.62;80.96;95865.72;1673434;85;26262;-91
2021/01/30 08:47:00;;;;;;;;;;;;;;;4.66;80.92;95871.44;1691176;84;24609;-89
2021/01/30 08:49:46;;;;;;;;;;;;;;;4.72;80.87;95865.72;1673529;85;20287;-91
2021/01/30 08:52:34;;;;;;;;;;;;;;;4.79;80.84;95860.36;1673229;85;25075;-90
2021/01/30 08:55:20;;;;;;;;;;;;;;;4.81;80.82;95857.13;1672306;85;22326;-89
2021/01/30 08:58:08;;;;;;;;;;;;;;;4.84;80.74;95873.25;1674003;84;26278;-89
2021/01/30 09:01:01;;;;;;;;;;;;;;;4.85;80.67;95899.98;1673557;85;20576;-89
2021/01/30 09:03:54;;;;;;;;;;;;;;;4.87;80.60;95901.47;1673555;85;20284;-89
2021/01/30 09:06:27;;;;;;;;;;;;;;;4.89;80.54;95904.76;1673468;85;25136;-89
2021/01/30 09:09:14;;;;;;;;;;;;;;;4.95;80.49;95887.85;1673387;84;22101;-89
2021/01/30 09:12:02;;;;;;;;;;;;;;;5.02;80.40;95886.33;1659464;85;26180;-90
2021/01/30 09:14:48;;;;;;;;;;;;;;;5.05;80.37;95880.90;1623394;88;24067;-90
2021/01/30 09:17:38;;;;;;;;;;;;;;;5.09;80.31;95895.22;1625086;88;20296;-90
2021/01/30 09:20:25;;;;;;;;;;;;;;;5.12;80.25;95902.73;1621577;88;25692;-90
2021/01/30 09:23:12;;;;;;;;;;;;;;;5.15;80.16;95907.64;1623982;88;22459;-90
2021/01/30 09:25:58;;;;;;;;;;;;;;;5.17;80.06;95916.11;1624355;88;26137;-90
2021/01/30 09:28:43;;;;;;;;;;;;;;;5.16;80.01;95918.36;1624621;88;24657;-90
2021/01/30 09:31:31;;;;;;;;;;;;;;;5.18;79.94;95927.30;1623200;88;20366;-89
2021/01/30 09:34:17;;;;;;;;;;;;;;;5.19;79.87;95927.14;1623943;88;25083;-89
2021/01/30 09:37:03;;;;;;;;;;;;;;;5.18;79.79;95929.42;1624252;88;22230;-90
2021/01/30 09:39:49;;;;;;;;;;;;;;;5.13;79.76;95934.16;1624166;87;26203;-90
2021/01/30 09:42:35;;;;;;;;;;;;;;;5.13;79.67;95937.27;1625071;88;24805;-90
2021/01/30 09:45:24;;;;;;;;;;;;;;;5.11;79.60;95949.05;1624607;88;20661;-89
2021/01/30 09:48:11;;;;;;;;;;;;;;;5.09;79.54;95942.34;1624776;88;25830;-89
2021/01/30 09:51:00;;;;;;;;;;;;;;;5.06;79.47;95935.67;1655637;86;23166;-89
2021/01/30 09:53:46;;;;;;;;;;;;;;;5.04;79.40;95934.98;1624825;88;27083;-89
2021/01/30 09:56:34;;;;;;;;;;;;;;;5.01;79.33;95941.74;1624206;88;25635;-90
2021/01/30 09:59:20;;;;;;;;;;;;;;;4.85;79.29;96026.47;1624765;88;20411;-90
2021/01/30 10:02:06;;;;;;;;;;;;;;;4.21;79.27;96047.88;1623916;88;24930;-90
2021/01/30 10:04:52;;;;;;;;;;;;;;;3.70;79.15;96061.54;1624853;88;22315;-89
2021/01/30 10:07:41;;;;;;;;;;;;;;;3.25;79.01;96076.81;1656095;86;40763;-90
2021/01/30 10:10:28;;;;;;;;;;;;;;;2.75;78.84;96091.05;1623527;88;25143;-89
2021/01/30 10:13:16;;;;;;;;;;;;;;;2.28;78.68;96106.23;1647253;84;20385;-88
2021/01/30 10:16:03;;;;;;;;;;;;;;;1.86;78.52;96120.03;1658283;85;24980;-90
2021/01/30 10:18:50;;;;;;;;;;;;;;;1.54;78.34;96135.23;1657274;86;22163;-90
2021/01/30 10:21:39;;;;;;;;;;;;;;;1.26;78.23;96149.22;1659479;85;26140;-92
2021/01/30 10:24:29;;;;;;;;;;;;;;;1.04;78.13;96155.95;1685340;83;24384;-92
2021/01/30 10:27:15;;;;;;;;;;;;;;;0.90;78.06;96161.23;1658065;86;20409;-90
2021/01/30 10:30:01;;;;;;;;;;;;;;;0.77;78.01;96162.50;1658801;86;25071;-87
2021/01/30 10:32:47;;;;;;;;;;;;;;;0.54;78.00;96188.97;1659230;86;22180;-90
2021/01/30 10:35:33;;;;;;;;;;;;;;;0.36;77.96;96184.11;1658078;86;26426;-90
2021/01/30 10:38:19;;;;;;;;;;;;;;;0.26;77.93;96209.23;1661458;85;24592;-90
2021/01/30 10:41:05;;;;;;;;;;;;;;;0.12;77.90;96223.42;1658226;86;20560;-90
2021/01/30 10:43:52;;;;;;;;;;;;;;;0.09;77.89;96233.46;1659500;86;25815;-90
2021/01/30 10:46:40;;;;;;;;;;;;;;;0.07;77.88;96235.29;1659545;86;22234;-91
2021/01/30 10:49:22;;;;;;;;;;;;;;;0.06;77.89;96240.52;1659145;86;26149;-89
2021/01/30 10:52:10;;;;;;;;;;;;;;;-0.06;77.91;96247.29;1659120;85;24635;-90
2021/01/30 10:55:01;;;;;;;;;;;;;;;-0.11;77.94;96249.33;1659866;86;20349;-90
2021/01/30 10:57:47;;;;;;;;;;;;;;;-0.19;77.96;96254.10;1657052;86;24985;-90
2021/01/30 11:00:35;;;;;;;;;;;;;;;-0.31;77.96;96270.27;1660103;86;22328;-88
2021/01/30 11:03:23;;;;;;;;;;;;;;;-0.40;77.97;96283.23;1658204;85;26129;-87
2021/01/30 11:06:10;;;;;;;;;;;;;;;-0.43;77.97;96282.95;1659031;86;24592;-87
2021/01/30 11:08:55;;;;;;;;;;;;;;;-0.52;77.98;96286.54;1659862;85;20341;-87
2021/01/30 11:11:41;;;;;;;;;;;;;;;-0.53;77.97;96303.69;1663070;85;24910;-88
2021/01/30 11:14:29;;;;;;;;;;;;;;;-0.55;77.96;96314.53;1625290;86;22959;-88
2021/01/30 11:17:15;;;;;;;;;;;;;;;-0.63;77.98;96318.00;1624960;88;26108;-87
2021/01/30 11:20:01;;;;;;;;;;;;;;;-0.74;77.95;96326.80;1622189;88;24616;-88
2021/01/30 11:22:47;;;;;;;;;;;;;;;-0.80;77.92;96335.31;1625514;88;20503;-88
2021/01/30 11:25:33;;;;;;;;;;;;;;;-0.86;77.92;96333.92;1622511;88;25840;-88
2021/01/30 11:28:19;;;;;;;;;;;;;;;-0.93;77.89;96355.76;1624628;88;22988;-89
2021/01/30 11:31:05;;;;;;;;;;;;;;;-0.93;77.88;96366.03;1625465;88;26399;-88
2021/01/30 11:33:51;;;;;;;;;;;;;;;-0.98;77.87;96379.55;1626344;88;25603;-89
2021/01/30 11:36:37;;;;;;;;;;;;;;;-1.02;77.83;96393.03;1624801;86;20307;-87
2021/01/30 11:39:24;;;;;;;;;;;;;;;-1.08;77.84;96392.09;1653590;85;24472;-88
2021/01/30 11:42:11;;;;;;;;;;;;;;;-1.13;77.82;96403.52;1624274;88;22162;-87
2021/01/30 11:44:57;;;;;;;;;;;;;;;-1.14;77.80;96418.09;1620042;88;26134;-87
2021/01/30 11:47:30;;;;;;;;;;;;;;;-1.14;77.79;96423.22;1621565;88;24805;-88
2021/01/30 11:50:18;;;;;;;;;;;;;;;-1.11;77.81;96424.81;1624202;86;20300;-87
2021/01/30 11:53:04;;;;;;;;;;;;;;;-1.11;77.79;96422.23;1624935;88;24882;-86
2021/01/30 11:55:54;;;;;;;;;;;;;;;-1.14;77.80;96428.81;1625302;87;22292;-87
2021/01/30 11:58:41;;;;;;;;;;;;;;;-1.12;77.80;96433.41;1622858;88;27040;-87
2021/01/30 12:01:31;;;;;;;;;;;;;;;-1.12;77.80;96439.83;1626030;88;24787;-87
2021/01/30 12:04:18;;;;;;;;;;;;;;;-1.08;77.81;96443.88;1624795;88;20539;-86
2021/01/30 12:07:04;;;;;;;;;;;;;;;-1.08;77.80;96453.69;1621457;88;24880;-87
2021/01/30 12:09:50;;;;;;;;;;;;;;;-1.09;77.80;96466.63;1624540;88;22156;-88
2021/01/30 12:12:36;;;;;;;;;;;;;;;-1.08;77.79;96461.84;1629199;84;26285;-87
2021/01/30 12:15:22;;;;;;;;;;;;;;;-1.01;77.79;96465.73;1654869;85;24629;-88
2021/01/30 12:18:09;;;;;;;;;;;;;;;-0.96;77.79;96474.00;1656469;85;20285;-88
2021/01/30 12:20:58;;;;;;;;;;;;;;;-0.93;77.80;96489.25;1655820;86;24996;-88
2021/01/30 12:23:44;;;;;;;;;;;;;;;-0.91;77.82;96498.50;1654713;85;23029;-88
2021/01/30 12:26:32;;;;;;;;;;;;;;;-0.87;77.80;96500.44;1628197;86;27132;-88
2021/01/30 12:29:19;;;;;;;;;;;;;;;-0.88;77.79;96505.22;1601251;88;24895;-88
2021/01/30 12:32:04;;;;;;;;;;;;;;;-0.91;77.77;96502.36;1601096;88;20354;-89
2021/01/30 12:34:50;;;;;;;;;;;;;;;-0.91;77.75;96503.64;1594827;89;24983;-88
2021/01/30 12:37:36;;;;;;;;;;;;;;;-0.83;77.73;96508.81;1602796;89;23105;-89
2021/01/30 12:40:22;;;;;;;;;;;;;;;-0.76;77.72;96503.72;1606688;88;26148;-89
2021/01/30 12:43:09;;;;;;;;;;;;;;;-0.88;77.73;96511.19;1595888;88;24690;-89
2021/01/30 12:45:55;;;;;;;;;;;;;;;-0.91;77.68;96493.82;1627504;88;20417;-86
2021/01/30 12:48:41;;;;;;;;;;;;;;;-0.95;77.66;96488.50;1600749;88;25003;-86
2021/01/30 12:51:27;;;;;;;;;;;;;;;-1.02;77.58;96496.16;1599737;88;22284;-87
2021/01/30 12:54:13;;;;;;;;;;;;;;;-1.02;77.52;96497.44;1621300;87;26206;-87
2021/01/30 12:56:59;;;;;;;;;;;;;;;-1.02;77.45;96493.13;1655034;86;24674;-87
2021/01/30 12:59:45;;;;;;;;;;;;;;;-0.98;77.41;96511.75;1654956;85;20345;-89
2021/01/30 13:02:31;;;;;;;;;;;;;;;-1.00;77.38;96531.56;1655895;86;24993;-86
2021/01/30 13:05:18;;;;;;;;;;;;;;;-0.96;77.34;96527.45;1656273;86;22229;-85
2021/01/30 13:08:03;;;;;;;;;;;;;;;-0.90;77.31;96530.97;1656684;86;26135;-86
2021/01/30 13:10:55;;;;;;;;;;;;;;;-0.88;77.27;96530.90;1655235;86;25404;-86
2021/01/30 13:13:42;;;;;;;;;;;;;;;-0.85;77.27;96534.11;1660119;85;20300;-86
2021/01/30 13:16:29;;;;;;;;;;;;;;;-0.87;77.24;96530.80;1673716;85;24964;-86
2021/01/30 13:19:16;;;;;;;;;;;;;;;-0.99;77.19;96546.06;1672667;84;22112;-89
2021/01/30 13:21:53;;;;;;;;;;;;;;;-0.96;77.12;96554.86;1672779;85;26147;-88
2021/01/30 13:24:42;;;;;;;;;;;;;;;-0.86;77.05;96542.72;1663759;84;24570;-88
2021/01/30 13:27:34;;;;;;;;;;;;;;;-0.81;77.03;96542.92;1671807;85;20293;-89
2021/01/30 13:30:20;;;;;;;;;;;;;;;-0.80;77.01;96555.69;1673475;85;25780;-86
2021/01/30 13:33:06;;;;;;;;;;;;;;;-0.80;76.98;96558.25;1673468;85;22173;-86
2021/01/30 13:35:53;;;;;;;;;;;;;;;-0.85;76.95;96559.80;1673101;85;27218;-86
2021/01/30 13:38:39;;;;;;;;;;;;;;;-0.86;76.89;96561.15;1673646;85;24759;-86
2021/01/30 13:41:25;;;;;;;;;;;;;;;-0.80;76.86;96554.85;1673935;85;20662;-86
2021/01/30 13:44:13;;;;;;;;;;;;;;;-0.82;76.83;96552.84;1673337;85;25054;-86
2021/01/30 13:46:59;;;;;;;;;;;;;;;-0.96;76.76;96538.17;1673564;85;22223;-86
2021/01/30 13:49:45;;;;;;;;;;;;;;;-0.87;76.73;96565.45;1674113;84;26105;-87
2021/01/30 13:52:32;;;;;;;;;;;;;;;-0.94;76.70;96560.75;1674063;84;25457;-88
2021/01/30 13:55:19;;;;;;;;;;;;;;;-1.00;76.65;96569.61;1672892;85;20357;-86
2021/01/30 13:58:05;;;;;;;;;;;;;;;-1.00;76.58;96580.33;1673603;85;24851;-89
2021/01/30 14:00:51;;;;;;;;;;;;;;;-0.97;76.58;96575.02;1671844;85;22221;-89
2021/01/30 14:03:37;;;;;;;;;;;;;;;-0.94;76.54;96569.73;1669951;85;26020;-89
2021/01/30 14:06:23;;;;;;;;;;;;;;;-0.88;76.55;96587.38;1673839;85;25064;-89
2021/01/30 14:09:13;;;;;;;;;;;;;;;-0.92;76.52;96583.30;1673608;85;20564;-88
2021/01/30 14:11:58;;;;;;;;;;;;;;;-0.98;76.50;96590.05;1673262;84;24972;-88
2021/01/30 14:14:47;;;;;;;;;;;;;;;-1.07;76.50;96593.95;1671834;84;22110;-88
2021/01/30 14:17:33;;;;;;;;;;;;;;;-1.14;76.46;96593.05;1674070;84;26149;-88
2021/01/30 14:20:20;;;;;;;;;;;;;;;-1.16;76.42;96597.46;1672523;84;24658;-88
2021/01/30 14:23:05;;;;;;;;;;;;;;;-1.17;76.40;96603.50;1673228;85;20595;-89
2021/01/30 14:25:51;;;;;;;;;;;;;;;-1.08;76.40;96613.27;1665588;85;24925;-86
2021/01/30 14:28:41;;;;;;;;;;;;;;;-1.07;76.38;96613.65;1673036;85;23065;-89
2021/01/30 14:31:28;;;;;;;;;;;;;;;-1.05;76.38;96616.52;1672849;85;26328;-89
2021/01/30 14:34:19;;;;;;;;;;;;;;;-1.06;76.41;96619.16;1671970;85;24664;-86
2021/01/30 14:37:05;;;;;;;;;;;;;;;-1.11;76.41;96630.13;1672303;85;20588;-88
2021/01/30 14:39:52;;;;;;;;;;;;;;;-1.18;76.39;96630.89;1677848;84;24994;-89
2021/01/30 14:42:38;;;;;;;;;;;;;;;-1.17;76.36;96627.88;1674017;85;22106;-90
2021/01/30 14:45:11;;;;;;;;;;;;;;;-1.15;76.34;96629.47;1673693;85;26242;-88
2021/01/30 14:47:58;;;;;;;;;;;;;;;-1.16;76.34;96640.63;1673195;85;25601;-88
2021/01/30 14:50:44;;;;;;;;;;;;;;;-1.19;76.33;96642.06;1673551;85;20353;-87
2021/01/30 14:53:31;;;;;;;;;;;;;;;-1.18;76.32;96643.72;1673656;85;24492;-88
2021/01/30 14:56:17;;;;;;;;;;;;;;;-1.17;76.33;96647.95;1673602;85;22268;-89